sensor_id;sensor_type;location;lat;lon;timestamp;P1;durP1;ratioP1;P2;durP2;ratioP2
12118;SDS011;6123;48.864;9.200;2023-10-09T00:00:11;10.63;;;7.40;;
12118;SDS011;6123;48.864;9.200;2023-10-09T00:02:56;10.38;;;6.43;;
12118;SDS011;6123;48.864;9.200;2023-10-09T00:05:25;13.85;;;6.80;;
12118;SDS011;6123;48.864;9.200;2023-10-09T00:08:10;11.90;;;7.25;;
12118;SDS011;6123;48.864;9.200;2023-10-09T00:10:41;12.68;;;7.13;;
12118;SDS011;6123;48.864;9.200;2023-10-09T00:13:22;9.25;;;6.95;;
12118;SDS011;6123;48.864;9.200;2023-10-09T00:16:05;8.73;;;6.60;;
12118;SDS011;6123;48.864;9.200;2023-10-09T00:18:39;10.50;;;7.18;;
12118;SDS011;6123;48.864;9.200;2023-10-09T00:21:13;13.65;;;6.57;;
12118;SDS011;6123;48.864;9.200;2023-10-09T00:23:40;9.63;;;6.65;;
12118;SDS011;6123;48.864;9.200;2023-10-09T00:26:07;12.88;;;6.82;;
12118;SDS011;6123;48.864;9.200;2023-10-09T00:28:35;11.52;;;6.93;;
12118;SDS011;6123;48.864;9.200;2023-10-09T00:31:03;10.02;;;6.82;;
12118;SDS011;6123;48.864;9.200;2023-10-09T00:33:33;11.55;;;6.55;;
12118;SDS011;6123;48.864;9.200;2023-10-09T00:36:05;12.32;;;7.93;;
12118;SDS011;6123;48.864;9.200;2023-10-09T00:38:44;10.10;;;7.05;;
12118;SDS011;6123;48.864;9.200;2023-10-09T00:41:14;8.65;;;7.13;;
12118;SDS011;6123;48.864;9.200;2023-10-09T00:43:44;12.20;;;6.50;;
12118;SDS011;6123;48.864;9.200;2023-10-09T00:46:10;11.57;;;7.60;;
12118;SDS011;6123;48.864;9.200;2023-10-09T00:48:45;16.42;;;7.80;;
12118;SDS011;6123;48.864;9.200;2023-10-09T00:51:42;11.55;;;7.80;;
12118;SDS011;6123;48.864;9.200;2023-10-09T00:54:21;13.10;;;7.47;;
12118;SDS011;6123;48.864;9.200;2023-10-09T00:56:51;13.23;;;7.30;;
12118;SDS011;6123;48.864;9.200;2023-10-09T00:59:22;10.75;;;7.20;;
12118;SDS011;6123;48.864;9.200;2023-10-09T01:01:49;12.85;;;7.07;;
12118;SDS011;6123;48.864;9.200;2023-10-09T01:04:21;14.23;;;7.38;;
12118;SDS011;6123;48.864;9.200;2023-10-09T01:06:50;10.57;;;6.85;;
12118;SDS011;6123;48.864;9.200;2023-10-09T01:09:31;11.70;;;6.90;;
12118;SDS011;6123;48.864;9.200;2023-10-09T01:12:02;13.52;;;6.90;;
12118;SDS011;6123;48.864;9.200;2023-10-09T01:14:31;14.07;;;6.85;;
12118;SDS011;6123;48.864;9.200;2023-10-09T01:17:06;10.25;;;6.85;;
12118;SDS011;6123;48.864;9.200;2023-10-09T01:19:32;10.27;;;6.20;;
12118;SDS011;6123;48.864;9.200;2023-10-09T01:21:59;11.27;;;7.28;;
12118;SDS011;6123;48.864;9.200;2023-10-09T01:24:37;11.25;;;6.57;;
12118;SDS011;6123;48.864;9.200;2023-10-09T01:27:03;8.68;;;6.50;;
12118;SDS011;6123;48.864;9.200;2023-10-09T01:29:36;12.65;;;7.28;;
12118;SDS011;6123;48.864;9.200;2023-10-09T01:32:02;9.85;;;6.55;;
12118;SDS011;6123;48.864;9.200;2023-10-09T01:34:28;14.35;;;7.13;;
12118;SDS011;6123;48.864;9.200;2023-10-09T01:37:03;9.20;;;6.00;;
12118;SDS011;6123;48.864;9.200;2023-10-09T01:39:48;13.07;;;7.30;;
12118;SDS011;6123;48.864;9.200;2023-10-09T01:42:16;13.63;;;6.38;;
12118;SDS011;6123;48.864;9.200;2023-10-09T01:45:09;8.07;;;6.47;;
12118;SDS011;6123;48.864;9.200;2023-10-09T01:47:40;10.13;;;6.00;;
12118;SDS011;6123;48.864;9.200;2023-10-09T01:50:06;12.77;;;6.35;;
12118;SDS011;6123;48.864;9.200;2023-10-09T01:52:43;8.98;;;6.50;;
12118;SDS011;6123;48.864;9.200;2023-10-09T01:55:08;11.38;;;6.10;;
12118;SDS011;6123;48.864;9.200;2023-10-09T01:57:38;10.02;;;6.18;;
12118;SDS011;6123;48.864;9.200;2023-10-09T02:00:04;9.20;;;6.65;;
12118;SDS011;6123;48.864;9.200;2023-10-09T02:02:32;8.48;;;5.82;;
12118;SDS011;6123;48.864;9.200;2023-10-09T02:05:05;11.80;;;6.50;;
12118;SDS011;6123;48.864;9.200;2023-10-09T02:07:36;11.30;;;6.07;;
12118;SDS011;6123;48.864;9.200;2023-10-09T02:10:09;13.50;;;6.30;;
12118;SDS011;6123;48.864;9.200;2023-10-09T02:12:49;11.07;;;6.40;;
12118;SDS011;6123;48.864;9.200;2023-10-09T02:15:22;11.20;;;6.15;;
12118;SDS011;6123;48.864;9.200;2023-10-09T02:18:06;12.65;;;6.47;;
12118;SDS011;6123;48.864;9.200;2023-10-09T02:23:25;9.18;;;6.47;;
12118;SDS011;6123;48.864;9.200;2023-10-09T02:26:09;10.60;;;7.10;;
12118;SDS011;6123;48.864;9.200;2023-10-09T02:28:43;9.45;;;5.95;;
12118;SDS011;6123;48.864;9.200;2023-10-09T02:31:10;11.90;;;7.25;;
12118;SDS011;6123;48.864;9.200;2023-10-09T02:33:36;9.88;;;7.07;;
12118;SDS011;6123;48.864;9.200;2023-10-09T02:36:04;10.20;;;7.05;;
12118;SDS011;6123;48.864;9.200;2023-10-09T02:38:33;12.25;;;7.30;;
12118;SDS011;6123;48.864;9.200;2023-10-09T02:41:00;9.80;;;6.72;;
12118;SDS011;6123;48.864;9.200;2023-10-09T02:43:32;10.88;;;6.93;;
12118;SDS011;6123;48.864;9.200;2023-10-09T02:46:09;8.95;;;6.35;;
12118;SDS011;6123;48.864;9.200;2023-10-09T02:48:58;12.23;;;7.10;;
12118;SDS011;6123;48.864;9.200;2023-10-09T02:51:25;9.57;;;6.70;;
12118;SDS011;6123;48.864;9.200;2023-10-09T02:54:12;10.88;;;6.57;;
12118;SDS011;6123;48.864;9.200;2023-10-09T02:56:52;8.80;;;6.75;;
12118;SDS011;6123;48.864;9.200;2023-10-09T02:59:33;13.13;;;7.25;;
12118;SDS011;6123;48.864;9.200;2023-10-09T03:02:02;13.02;;;6.63;;
12118;SDS011;6123;48.864;9.200;2023-10-09T03:04:28;13.35;;;6.95;;
12118;SDS011;6123;48.864;9.200;2023-10-09T03:06:54;12.27;;;7.50;;
12118;SDS011;6123;48.864;9.200;2023-10-09T03:09:22;13.07;;;7.32;;
12118;SDS011;6123;48.864;9.200;2023-10-09T03:11:55;12.38;;;6.72;;
12118;SDS011;6123;48.864;9.200;2023-10-09T03:14:31;10.80;;;6.45;;
12118;SDS011;6123;48.864;9.200;2023-10-09T03:17:00;13.60;;;6.97;;
12118;SDS011;6123;48.864;9.200;2023-10-09T03:19:26;12.93;;;7.03;;
12118;SDS011;6123;48.864;9.200;2023-10-09T03:22:05;11.80;;;6.43;;
12118;SDS011;6123;48.864;9.200;2023-10-09T03:24:35;11.48;;;6.20;;
12118;SDS011;6123;48.864;9.200;2023-10-09T03:27:01;14.35;;;6.68;;
12118;SDS011;6123;48.864;9.200;2023-10-09T03:29:27;13.55;;;6.50;;
12118;SDS011;6123;48.864;9.200;2023-10-09T03:31:53;12.43;;;6.18;;
12118;SDS011;6123;48.864;9.200;2023-10-09T03:34:20;10.45;;;5.80;;
12118;SDS011;6123;48.864;9.200;2023-10-09T03:36:46;12.77;;;5.95;;
12118;SDS011;6123;48.864;9.200;2023-10-09T03:39:13;13.73;;;5.97;;
12118;SDS011;6123;48.864;9.200;2023-10-09T03:41:57;11.55;;;6.05;;
12118;SDS011;6123;48.864;9.200;2023-10-09T03:44:23;10.85;;;6.30;;
12118;SDS011;6123;48.864;9.200;2023-10-09T03:46:55;13.77;;;6.43;;
12118;SDS011;6123;48.864;9.200;2023-10-09T03:49:21;13.88;;;6.40;;
12118;SDS011;6123;48.864;9.200;2023-10-09T03:51:51;14.55;;;6.35;;
12118;SDS011;6123;48.864;9.200;2023-10-09T03:54:17;11.48;;;6.18;;
12118;SDS011;6123;48.864;9.200;2023-10-09T03:56:47;9.23;;;5.93;;
12118;SDS011;6123;48.864;9.200;2023-10-09T03:59:20;10.85;;;6.75;;
12118;SDS011;6123;48.864;9.200;2023-10-09T04:01:46;13.73;;;6.75;;
12118;SDS011;6123;48.864;9.200;2023-10-09T04:04:15;9.45;;;6.55;;
12118;SDS011;6123;48.864;9.200;2023-10-09T04:06:40;11.45;;;6.78;;
12118;SDS011;6123;48.864;9.200;2023-10-09T04:09:07;13.20;;;6.72;;
12118;SDS011;6123;48.864;9.200;2023-10-09T04:11:42;12.02;;;6.97;;
12118;SDS011;6123;48.864;9.200;2023-10-09T04:14:09;11.73;;;6.38;;
12118;SDS011;6123;48.864;9.200;2023-10-09T04:16:47;11.90;;;6.70;;
12118;SDS011;6123;48.864;9.200;2023-10-09T04:19:51;10.07;;;7.00;;
12118;SDS011;6123;48.864;9.200;2023-10-09T04:22:38;13.02;;;6.63;;
12118;SDS011;6123;48.864;9.200;2023-10-09T04:25:14;13.55;;;6.70;;
12118;SDS011;6123;48.864;9.200;2023-10-09T04:27:50;11.13;;;6.70;;
12118;SDS011;6123;48.864;9.200;2023-10-09T04:30:18;12.38;;;6.93;;
12118;SDS011;6123;48.864;9.200;2023-10-09T04:32:44;13.20;;;6.75;;
12118;SDS011;6123;48.864;9.200;2023-10-09T04:35:13;11.70;;;6.28;;
12118;SDS011;6123;48.864;9.200;2023-10-09T04:37:47;17.35;;;6.95;;
12118;SDS011;6123;48.864;9.200;2023-10-09T04:40:29;12.73;;;6.63;;
12118;SDS011;6123;48.864;9.200;2023-10-09T04:43:16;12.07;;;6.50;;
12118;SDS011;6123;48.864;9.200;2023-10-09T04:45:48;13.35;;;6.60;;
12118;SDS011;6123;48.864;9.200;2023-10-09T04:48:32;17.13;;;8.27;;
12118;SDS011;6123;48.864;9.200;2023-10-09T04:51:01;13.20;;;6.95;;
12118;SDS011;6123;48.864;9.200;2023-10-09T04:53:45;16.05;;;7.03;;
12118;SDS011;6123;48.864;9.200;2023-10-09T04:56:34;16.05;;;6.60;;
12118;SDS011;6123;48.864;9.200;2023-10-09T04:59:16;17.23;;;6.93;;
12118;SDS011;6123;48.864;9.200;2023-10-09T05:01:43;9.35;;;5.97;;
12118;SDS011;6123;48.864;9.200;2023-10-09T05:04:22;14.45;;;7.15;;
12118;SDS011;6123;48.864;9.200;2023-10-09T05:07:03;13.98;;;6.45;;
12118;SDS011;6123;48.864;9.200;2023-10-09T05:09:48;16.48;;;6.63;;
12118;SDS011;6123;48.864;9.200;2023-10-09T05:12:39;16.02;;;6.65;;
12118;SDS011;6123;48.864;9.200;2023-10-09T05:15:11;12.70;;;6.38;;
12118;SDS011;6123;48.864;9.200;2023-10-09T05:17:38;13.05;;;6.40;;
12118;SDS011;6123;48.864;9.200;2023-10-09T05:20:05;16.65;;;6.38;;
12118;SDS011;6123;48.864;9.200;2023-10-09T05:22:50;12.07;;;7.07;;
12118;SDS011;6123;48.864;9.200;2023-10-09T05:25:44;11.90;;;6.18;;
12118;SDS011;6123;48.864;9.200;2023-10-09T05:28:19;13.02;;;6.18;;
12118;SDS011;6123;48.864;9.200;2023-10-09T05:30:55;17.75;;;7.00;;
12118;SDS011;6123;48.864;9.200;2023-10-09T05:33:31;14.98;;;6.93;;
12118;SDS011;6123;48.864;9.200;2023-10-09T05:35:59;17.63;;;7.30;;
12118;SDS011;6123;48.864;9.200;2023-10-09T05:38:56;14.20;;;6.03;;
12118;SDS011;6123;48.864;9.200;2023-10-09T05:41:42;16.67;;;7.07;;
12118;SDS011;6123;48.864;9.200;2023-10-09T05:44:13;15.20;;;6.57;;
12118;SDS011;6123;48.864;9.200;2023-10-09T05:46:57;13.27;;;6.30;;
12118;SDS011;6123;48.864;9.200;2023-10-09T05:49:49;14.93;;;8.45;;
12118;SDS011;6123;48.864;9.200;2023-10-09T05:52:40;13.75;;;7.38;;
12118;SDS011;6123;48.864;9.200;2023-10-09T05:55:06;13.23;;;6.55;;
12118;SDS011;6123;48.864;9.200;2023-10-09T05:57:44;15.20;;;6.45;;
12118;SDS011;6123;48.864;9.200;2023-10-09T06:00:22;15.30;;;6.75;;
12118;SDS011;6123;48.864;9.200;2023-10-09T06:03:07;15.57;;;6.50;;
12118;SDS011;6123;48.864;9.200;2023-10-09T06:05:52;19.73;;;7.30;;
12118;SDS011;6123;48.864;9.200;2023-10-09T06:08:22;12.27;;;6.18;;
12118;SDS011;6123;48.864;9.200;2023-10-09T06:11:09;11.98;;;5.95;;
12118;SDS011;6123;48.864;9.200;2023-10-09T06:13:55;18.20;;;6.20;;
12118;SDS011;6123;48.864;9.200;2023-10-09T06:16:33;13.60;;;6.60;;
12118;SDS011;6123;48.864;9.200;2023-10-09T06:19:25;14.75;;;6.80;;
12118;SDS011;6123;48.864;9.200;2023-10-09T06:21:54;14.60;;;6.80;;
12118;SDS011;6123;48.864;9.200;2023-10-09T06:24:44;10.27;;;6.07;;
12118;SDS011;6123;48.864;9.200;2023-10-09T06:27:19;14.98;;;6.18;;
12118;SDS011;6123;48.864;9.200;2023-10-09T06:29:57;16.05;;;6.90;;
12118;SDS011;6123;48.864;9.200;2023-10-09T06:32:39;14.15;;;6.20;;
12118;SDS011;6123;48.864;9.200;2023-10-09T06:35:24;12.20;;;5.65;;
12118;SDS011;6123;48.864;9.200;2023-10-09T06:37:57;13.35;;;6.40;;
12118;SDS011;6123;48.864;9.200;2023-10-09T06:43:22;17.58;;;7.10;;
12118;SDS011;6123;48.864;9.200;2023-10-09T06:45:55;18.25;;;6.85;;
12118;SDS011;6123;48.864;9.200;2023-10-09T06:48:40;15.70;;;6.00;;
12118;SDS011;6123;48.864;9.200;2023-10-09T06:51:10;11.73;;;5.68;;
12118;SDS011;6123;48.864;9.200;2023-10-09T06:53:55;20.30;;;5.85;;
12118;SDS011;6123;48.864;9.200;2023-10-09T06:56:25;13.80;;;5.95;;
12118;SDS011;6123;48.864;9.200;2023-10-09T06:58:54;14.90;;;5.88;;
12118;SDS011;6123;48.864;9.200;2023-10-09T07:01:20;16.23;;;6.05;;
12118;SDS011;6123;48.864;9.200;2023-10-09T07:04:04;16.27;;;6.65;;
12118;SDS011;6123;48.864;9.200;2023-10-09T07:06:49;13.05;;;6.50;;
12118;SDS011;6123;48.864;9.200;2023-10-09T07:09:16;14.32;;;5.78;;
12118;SDS011;6123;48.864;9.200;2023-10-09T07:11:50;16.77;;;6.22;;
12118;SDS011;6123;48.864;9.200;2023-10-09T07:17:01;15.18;;;6.50;;
12118;SDS011;6123;48.864;9.200;2023-10-09T07:19:50;13.93;;;7.18;;
12118;SDS011;6123;48.864;9.200;2023-10-09T07:22:20;16.42;;;7.45;;
12118;SDS011;6123;48.864;9.200;2023-10-09T07:24:54;18.15;;;7.35;;
12118;SDS011;6123;48.864;9.200;2023-10-09T07:27:21;15.40;;;8.00;;
12118;SDS011;6123;48.864;9.200;2023-10-09T07:30:07;14.27;;;7.25;;
12118;SDS011;6123;48.864;9.200;2023-10-09T07:32:59;14.40;;;7.03;;
12118;SDS011;6123;48.864;9.200;2023-10-09T07:35:41;14.93;;;6.65;;
12118;SDS011;6123;48.864;9.200;2023-10-09T07:38:16;19.05;;;8.13;;
12118;SDS011;6123;48.864;9.200;2023-10-09T07:40:53;13.80;;;6.72;;
12118;SDS011;6123;48.864;9.200;2023-10-09T07:43:23;14.75;;;7.75;;
12118;SDS011;6123;48.864;9.200;2023-10-09T07:46:09;22.85;;;7.90;;
12118;SDS011;6123;48.864;9.200;2023-10-09T07:49:01;16.98;;;7.55;;
12118;SDS011;6123;48.864;9.200;2023-10-09T07:51:34;17.98;;;6.80;;
12118;SDS011;6123;48.864;9.200;2023-10-09T07:54:01;17.27;;;7.15;;
12118;SDS011;6123;48.864;9.200;2023-10-09T07:56:33;18.08;;;7.43;;
12118;SDS011;6123;48.864;9.200;2023-10-09T07:59:18;16.40;;;7.32;;
12118;SDS011;6123;48.864;9.200;2023-10-09T08:01:44;15.95;;;7.28;;
12118;SDS011;6123;48.864;9.200;2023-10-09T08:04:23;16.58;;;7.18;;
12118;SDS011;6123;48.864;9.200;2023-10-09T08:07:09;14.20;;;7.43;;
12118;SDS011;6123;48.864;9.200;2023-10-09T08:09:44;17.95;;;7.63;;
12118;SDS011;6123;48.864;9.200;2023-10-09T08:12:15;17.20;;;7.40;;
12118;SDS011;6123;48.864;9.200;2023-10-09T08:15:00;18.60;;;8.05;;
12118;SDS011;6123;48.864;9.200;2023-10-09T08:17:47;21.55;;;7.60;;
12118;SDS011;6123;48.864;9.200;2023-10-09T08:20:24;14.00;;;7.35;;
12118;SDS011;6123;48.864;9.200;2023-10-09T08:22:51;14.63;;;7.50;;
12118;SDS011;6123;48.864;9.200;2023-10-09T08:25:23;18.35;;;10.85;;
12118;SDS011;6123;48.864;9.200;2023-10-09T08:27:57;22.25;;;12.35;;
12118;SDS011;6123;48.864;9.200;2023-10-09T08:30:23;14.73;;;7.18;;
12118;SDS011;6123;48.864;9.200;2023-10-09T08:32:50;13.23;;;7.15;;
12118;SDS011;6123;48.864;9.200;2023-10-09T08:35:35;15.90;;;6.95;;
12118;SDS011;6123;48.864;9.200;2023-10-09T08:38:14;19.13;;;7.47;;
12118;SDS011;6123;48.864;9.200;2023-10-09T08:40:42;17.25;;;7.90;;
12118;SDS011;6123;48.864;9.200;2023-10-09T08:43:14;17.35;;;8.55;;
12118;SDS011;6123;48.864;9.200;2023-10-09T08:45:45;21.60;;;7.53;;
12118;SDS011;6123;48.864;9.200;2023-10-09T08:48:12;18.25;;;7.68;;
12118;SDS011;6123;48.864;9.200;2023-10-09T08:50:41;20.05;;;8.32;;
12118;SDS011;6123;48.864;9.200;2023-10-09T08:53:12;19.00;;;7.95;;
12118;SDS011;6123;48.864;9.200;2023-10-09T08:55:39;18.23;;;6.85;;
12118;SDS011;6123;48.864;9.200;2023-10-09T08:58:06;21.17;;;6.97;;
12118;SDS011;6123;48.864;9.200;2023-10-09T09:00:43;18.60;;;7.60;;
12118;SDS011;6123;48.864;9.200;2023-10-09T09:03:11;16.83;;;7.53;;
12118;SDS011;6123;48.864;9.200;2023-10-09T09:05:47;15.18;;;7.30;;
12118;SDS011;6123;48.864;9.200;2023-10-09T09:08:24;10.43;;;5.63;;
12118;SDS011;6123;48.864;9.200;2023-10-09T09:10:56;12.98;;;5.47;;
12118;SDS011;6123;48.864;9.200;2023-10-09T09:13:37;22.40;;;7.57;;
12118;SDS011;6123;48.864;9.200;2023-10-09T09:16:20;22.88;;;8.38;;
12118;SDS011;6123;48.864;9.200;2023-10-09T09:18:51;19.15;;;7.55;;
12118;SDS011;6123;48.864;9.200;2023-10-09T09:21:28;19.25;;;8.13;;
12118;SDS011;6123;48.864;9.200;2023-10-09T09:23:58;24.05;;;8.73;;
12118;SDS011;6123;48.864;9.200;2023-10-09T09:26:39;16.40;;;7.43;;
12118;SDS011;6123;48.864;9.200;2023-10-09T09:29:10;17.75;;;7.68;;
12118;SDS011;6123;48.864;9.200;2023-10-09T09:31:53;20.90;;;8.25;;
12118;SDS011;6123;48.864;9.200;2023-10-09T09:34:20;18.63;;;7.47;;
12118;SDS011;6123;48.864;9.200;2023-10-09T09:36:54;15.68;;;7.68;;
12118;SDS011;6123;48.864;9.200;2023-10-09T09:39:21;20.27;;;7.88;;
12118;SDS011;6123;48.864;9.200;2023-10-09T09:42:01;17.48;;;7.28;;
12118;SDS011;6123;48.864;9.200;2023-10-09T09:44:32;20.38;;;8.57;;
12118;SDS011;6123;48.864;9.200;2023-10-09T09:47:08;20.33;;;8.75;;
12118;SDS011;6123;48.864;9.200;2023-10-09T09:49:38;17.98;;;9.02;;
12118;SDS011;6123;48.864;9.200;2023-10-09T09:52:07;20.27;;;8.38;;
12118;SDS011;6123;48.864;9.200;2023-10-09T09:54:37;17.63;;;8.13;;
12118;SDS011;6123;48.864;9.200;2023-10-09T09:57:03;20.27;;;8.55;;
12118;SDS011;6123;48.864;9.200;2023-10-09T09:59:41;21.50;;;8.20;;
12118;SDS011;6123;48.864;9.200;2023-10-09T10:02:18;19.48;;;8.15;;
12118;SDS011;6123;48.864;9.200;2023-10-09T10:04:50;17.67;;;7.65;;
12118;SDS011;6123;48.864;9.200;2023-10-09T10:07:19;23.35;;;7.55;;
12118;SDS011;6123;48.864;9.200;2023-10-09T10:09:46;18.48;;;8.05;;
12118;SDS011;6123;48.864;9.200;2023-10-09T10:12:14;15.95;;;7.88;;
12118;SDS011;6123;48.864;9.200;2023-10-09T10:14:59;18.67;;;7.35;;
12118;SDS011;6123;48.864;9.200;2023-10-09T10:17:52;18.73;;;7.78;;
12118;SDS011;6123;48.864;9.200;2023-10-09T10:20:24;16.48;;;7.45;;
12118;SDS011;6123;48.864;9.200;2023-10-09T10:22:51;20.02;;;7.78;;
12118;SDS011;6123;48.864;9.200;2023-10-09T10:25:42;20.10;;;7.65;;
12118;SDS011;6123;48.864;9.200;2023-10-09T10:28:23;16.20;;;6.50;;
12118;SDS011;6123;48.864;9.200;2023-10-09T10:30:53;19.13;;;7.55;;
12118;SDS011;6123;48.864;9.200;2023-10-09T10:33:20;22.05;;;7.80;;
12118;SDS011;6123;48.864;9.200;2023-10-09T10:35:47;19.50;;;6.68;;
12118;SDS011;6123;48.864;9.200;2023-10-09T10:38:23;23.42;;;7.60;;
12118;SDS011;6123;48.864;9.200;2023-10-09T10:41:10;23.58;;;7.47;;
12118;SDS011;6123;48.864;9.200;2023-10-09T10:43:37;20.42;;;7.20;;
12118;SDS011;6123;48.864;9.200;2023-10-09T10:46:11;19.33;;;7.53;;
12118;SDS011;6123;48.864;9.200;2023-10-09T10:48:40;23.52;;;7.55;;
12118;SDS011;6123;48.864;9.200;2023-10-09T10:51:12;16.30;;;7.05;;
12118;SDS011;6123;48.864;9.200;2023-10-09T10:53:53;22.08;;;8.05;;
12118;SDS011;6123;48.864;9.200;2023-10-09T10:56:23;21.40;;;7.72;;
12118;SDS011;6123;48.864;9.200;2023-10-09T10:59:00;19.50;;;6.97;;
12118;SDS011;6123;48.864;9.200;2023-10-09T11:01:31;17.75;;;7.32;;
12118;SDS011;6123;48.864;9.200;2023-10-09T11:04:27;22.23;;;8.38;;
12118;SDS011;6123;48.864;9.200;2023-10-09T11:07:10;21.83;;;7.88;;
12118;SDS011;6123;48.864;9.200;2023-10-09T11:12:25;25.95;;;8.13;;
12118;SDS011;6123;48.864;9.200;2023-10-09T11:15:03;18.90;;;7.75;;
12118;SDS011;6123;48.864;9.200;2023-10-09T11:17:33;17.52;;;6.70;;
12118;SDS011;6123;48.864;9.200;2023-10-09T11:20:03;19.20;;;7.75;;
12118;SDS011;6123;48.864;9.200;2023-10-09T11:22:51;21.73;;;8.50;;
12118;SDS011;6123;48.864;9.200;2023-10-09T11:25:39;17.20;;;8.07;;
12118;SDS011;6123;48.864;9.200;2023-10-09T11:28:18;17.00;;;6.85;;
12118;SDS011;6123;48.864;9.200;2023-10-09T11:31:07;13.35;;;5.35;;
12118;SDS011;6123;48.864;9.200;2023-10-09T11:33:44;13.55;;;5.40;;
12118;SDS011;6123;48.864;9.200;2023-10-09T11:36:20;14.85;;;4.85;;
12118;SDS011;6123;48.864;9.200;2023-10-09T11:38:56;12.40;;;4.65;;
12118;SDS011;6123;48.864;9.200;2023-10-09T11:41:42;10.65;;;4.68;;
12118;SDS011;6123;48.864;9.200;2023-10-09T11:44:09;14.13;;;5.20;;
12118;SDS011;6123;48.864;9.200;2023-10-09T11:46:56;19.58;;;5.15;;
12118;SDS011;6123;48.864;9.200;2023-10-09T11:49:50;12.75;;;5.20;;
12118;SDS011;6123;48.864;9.200;2023-10-09T11:52:26;9.57;;;4.70;;
12118;SDS011;6123;48.864;9.200;2023-10-09T11:55:04;12.27;;;5.30;;
12118;SDS011;6123;48.864;9.200;2023-10-09T11:57:39;14.45;;;6.65;;
12118;SDS011;6123;48.864;9.200;2023-10-09T12:00:06;12.00;;;5.53;;
12118;SDS011;6123;48.864;9.200;2023-10-09T12:02:50;12.45;;;5.32;;
12118;SDS011;6123;48.864;9.200;2023-10-09T12:05:15;12.52;;;5.13;;
12118;SDS011;6123;48.864;9.200;2023-10-09T12:07:47;10.27;;;4.78;;
12118;SDS011;6123;48.864;9.200;2023-10-09T12:10:19;11.90;;;5.05;;
12118;SDS011;6123;48.864;9.200;2023-10-09T12:12:54;13.55;;;5.13;;
12118;SDS011;6123;48.864;9.200;2023-10-09T12:15:23;10.65;;;4.97;;
12118;SDS011;6123;48.864;9.200;2023-10-09T12:17:49;12.77;;;5.22;;
12118;SDS011;6123;48.864;9.200;2023-10-09T12:20:15;13.18;;;5.40;;
12118;SDS011;6123;48.864;9.200;2023-10-09T12:22:59;11.00;;;5.60;;
12118;SDS011;6123;48.864;9.200;2023-10-09T12:25:26;18.25;;;5.93;;
12118;SDS011;6123;48.864;9.200;2023-10-09T12:27:56;11.13;;;5.38;;
12118;SDS011;6123;48.864;9.200;2023-10-09T12:30:27;11.13;;;5.25;;
12118;SDS011;6123;48.864;9.200;2023-10-09T12:32:56;16.75;;;6.53;;
12118;SDS011;6123;48.864;9.200;2023-10-09T12:35:26;17.45;;;6.75;;
12118;SDS011;6123;48.864;9.200;2023-10-09T12:37:53;15.25;;;6.78;;
12118;SDS011;6123;48.864;9.200;2023-10-09T12:40:19;19.05;;;6.50;;
12118;SDS011;6123;48.864;9.200;2023-10-09T12:42:50;15.27;;;6.32;;
12118;SDS011;6123;48.864;9.200;2023-10-09T12:45:19;17.20;;;6.75;;
12118;SDS011;6123;48.864;9.200;2023-10-09T12:47:51;17.25;;;6.53;;
12118;SDS011;6123;48.864;9.200;2023-10-09T12:50:17;19.35;;;6.30;;
12118;SDS011;6123;48.864;9.200;2023-10-09T12:52:52;12.00;;;6.07;;
12118;SDS011;6123;48.864;9.200;2023-10-09T12:55:21;18.60;;;6.10;;
12118;SDS011;6123;48.864;9.200;2023-10-09T12:57:56;14.05;;;5.60;;
12118;SDS011;6123;48.864;9.200;2023-10-09T13:00:29;13.52;;;5.45;;
12118;SDS011;6123;48.864;9.200;2023-10-09T13:02:57;7.35;;;5.18;;
12118;SDS011;6123;48.864;9.200;2023-10-09T13:05:26;12.35;;;5.07;;
12118;SDS011;6123;48.864;9.200;2023-10-09T13:07:52;13.88;;;5.78;;
12118;SDS011;6123;48.864;9.200;2023-10-09T13:10:18;10.68;;;5.15;;
12118;SDS011;6123;48.864;9.200;2023-10-09T13:12:45;9.07;;;5.20;;
12118;SDS011;6123;48.864;9.200;2023-10-09T13:15:11;15.73;;;5.88;;
12118;SDS011;6123;48.864;9.200;2023-10-09T13:17:37;11.32;;;5.93;;
12118;SDS011;6123;48.864;9.200;2023-10-09T13:20:03;9.23;;;5.55;;
12118;SDS011;6123;48.864;9.200;2023-10-09T13:22:39;11.40;;;4.75;;
12118;SDS011;6123;48.864;9.200;2023-10-09T13:25:10;11.00;;;5.72;;
12118;SDS011;6123;48.864;9.200;2023-10-09T13:27:42;14.20;;;5.75;;
12118;SDS011;6123;48.864;9.200;2023-10-09T13:30:15;13.20;;;6.00;;
12118;SDS011;6123;48.864;9.200;2023-10-09T13:32:48;9.55;;;6.03;;
12118;SDS011;6123;48.864;9.200;2023-10-09T13:35:15;10.73;;;6.45;;
12118;SDS011;6123;48.864;9.200;2023-10-09T13:37:42;10.63;;;6.13;;
12118;SDS011;6123;48.864;9.200;2023-10-09T13:40:09;10.38;;;6.75;;
12118;SDS011;6123;48.864;9.200;2023-10-09T13:42:36;10.90;;;7.07;;
12118;SDS011;6123;48.864;9.200;2023-10-09T13:45:03;11.52;;;7.00;;
12118;SDS011;6123;48.864;9.200;2023-10-09T13:47:40;8.70;;;6.93;;
12118;SDS011;6123;48.864;9.200;2023-10-09T13:50:09;12.02;;;7.88;;
12118;SDS011;6123;48.864;9.200;2023-10-09T13:52:35;12.18;;;7.82;;
12118;SDS011;6123;48.864;9.200;2023-10-09T13:55:04;11.77;;;7.78;;
12118;SDS011;6123;48.864;9.200;2023-10-09T13:57:45;11.75;;;7.60;;
12118;SDS011;6123;48.864;9.200;2023-10-09T14:00:12;11.63;;;7.38;;
12118;SDS011;6123;48.864;9.200;2023-10-09T14:02:42;17.10;;;10.43;;
12118;SDS011;6123;48.864;9.200;2023-10-09T14:05:08;15.25;;;8.77;;
12118;SDS011;6123;48.864;9.200;2023-10-09T14:07:33;11.13;;;7.68;;
12118;SDS011;6123;48.864;9.200;2023-10-09T14:09:59;10.57;;;7.72;;
12118;SDS011;6123;48.864;9.200;2023-10-09T14:12:42;12.13;;;8.02;;
12118;SDS011;6123;48.864;9.200;2023-10-09T14:15:09;11.07;;;7.43;;
12118;SDS011;6123;48.864;9.200;2023-10-09T14:17:42;11.82;;;7.68;;
12118;SDS011;6123;48.864;9.200;2023-10-09T14:20:08;12.50;;;8.07;;
12118;SDS011;6123;48.864;9.200;2023-10-09T14:22:52;11.35;;;8.38;;
12118;SDS011;6123;48.864;9.200;2023-10-09T14:25:18;12.27;;;7.97;;
12118;SDS011;6123;48.864;9.200;2023-10-09T14:27:46;10.50;;;8.27;;
12118;SDS011;6123;48.864;9.200;2023-10-09T14:30:17;10.57;;;7.72;;
12118;SDS011;6123;48.864;9.200;2023-10-09T14:32:56;11.82;;;8.82;;
12118;SDS011;6123;48.864;9.200;2023-10-09T14:35:22;9.93;;;8.13;;
12118;SDS011;6123;48.864;9.200;2023-10-09T14:37:52;11.90;;;8.85;;
12118;SDS011;6123;48.864;9.200;2023-10-09T14:40:19;10.68;;;8.35;;
12118;SDS011;6123;48.864;9.200;2023-10-09T14:42:55;11.25;;;8.35;;
12118;SDS011;6123;48.864;9.200;2023-10-09T14:45:23;12.15;;;8.88;;
12118;SDS011;6123;48.864;9.200;2023-10-09T14:47:51;11.75;;;8.75;;
12118;SDS011;6123;48.864;9.200;2023-10-09T14:50:18;9.75;;;7.55;;
12118;SDS011;6123;48.864;9.200;2023-10-09T14:52:47;13.95;;;8.88;;
12118;SDS011;6123;48.864;9.200;2023-10-09T14:55:15;13.15;;;8.35;;
12118;SDS011;6123;48.864;9.200;2023-10-09T14:57:46;11.38;;;7.65;;
12118;SDS011;6123;48.864;9.200;2023-10-09T15:00:17;13.48;;;7.97;;
12118;SDS011;6123;48.864;9.200;2023-10-09T15:02:48;12.32;;;7.90;;
12118;SDS011;6123;48.864;9.200;2023-10-09T15:05:15;13.35;;;7.80;;
12118;SDS011;6123;48.864;9.200;2023-10-09T15:07:41;11.27;;;7.47;;
12118;SDS011;6123;48.864;9.200;2023-10-09T15:10:07;9.82;;;7.63;;
12118;SDS011;6123;48.864;9.200;2023-10-09T15:12:34;12.15;;;7.75;;
12118;SDS011;6123;48.864;9.200;2023-10-09T15:15:05;11.32;;;7.55;;
12118;SDS011;6123;48.864;9.200;2023-10-09T15:17:38;10.32;;;7.43;;
12118;SDS011;6123;48.864;9.200;2023-10-09T15:20:13;11.77;;;7.72;;
12118;SDS011;6123;48.864;9.200;2023-10-09T15:22:43;19.55;;;7.57;;
12118;SDS011;6123;48.864;9.200;2023-10-09T15:25:09;12.98;;;9.05;;
12118;SDS011;6123;48.864;9.200;2023-10-09T15:27:42;11.02;;;7.97;;
12118;SDS011;6123;48.864;9.200;2023-10-09T15:30:08;14.23;;;9.15;;
12118;SDS011;6123;48.864;9.200;2023-10-09T15:32:38;12.90;;;9.48;;
12118;SDS011;6123;48.864;9.200;2023-10-09T15:35:10;15.23;;;10.10;;
12118;SDS011;6123;48.864;9.200;2023-10-09T15:37:37;15.27;;;9.75;;